sensor_id;sensor_type;location;lat;lon;timestamp;temperature;humidity
14144;DHT22;7152;48.348;10.980;2023-04-01T00:02:07;7.70;99.90
14144;DHT22;7152;48.348;10.980;2023-04-01T00:04:32;7.70;99.90
14144;DHT22;7152;48.348;10.980;2023-04-01T00:06:58;7.70;99.90
14144;DHT22;7152;48.348;10.980;2023-04-01T00:09:25;7.80;99.90
14144;DHT22;7152;48.348;10.980;2023-04-01T00:11:51;7.80;99.90
14144;DHT22;7152;48.348;10.980;2023-04-01T00:14:17;7.80;99.90
14144;DHT22;7152;48.348;10.980;2023-04-01T00:16:43;7.90;99.90
14144;DHT22;7152;48.348;10.980;2023-04-01T00:19:09;7.90;99.90
14144;DHT22;7152;48.348;10.980;2023-04-01T00:21:34;7.90;99.90
14144;DHT22;7152;48.348;10.980;2023-04-01T00:24:01;7.90;99.90
14144;DHT22;7152;48.348;10.980;2023-04-01T00:26:26;7.80;99.90
14144;DHT22;7152;48.348;10.980;2023-04-01T00:28:52;7.90;99.90
14144;DHT22;7152;48.348;10.980;2023-04-01T00:31:18;7.90;99.90
14144;DHT22;7152;48.348;10.980;2023-04-01T00:33:44;7.90;99.90
14144;DHT22;7152;48.348;10.980;2023-04-01T00:38:36;7.80;99.90
14144;DHT22;7152;48.348;10.980;2023-04-01T00:41:02;7.90;99.90
14144;DHT22;7152;48.348;10.980;2023-04-01T00:43:27;7.80;99.90
14144;DHT22;7152;48.348;10.980;2023-04-01T00:45:53;7.80;99.90
14144;DHT22;7152;48.348;10.980;2023-04-01T00:48:27;7.80;99.90
14144;DHT22;7152;48.348;10.980;2023-04-01T00:51:01;7.80;99.90
14144;DHT22;7152;48.348;10.980;2023-04-01T00:53:28;7.80;99.90
14144;DHT22;7152;48.348;10.980;2023-04-01T00:56:13;7.80;99.90
14144;DHT22;7152;48.348;10.980;2023-04-01T00:58:50;7.80;99.90
14144;DHT22;7152;48.348;10.980;2023-04-01T01:01:17;7.80;99.90
14144;DHT22;7152;48.348;10.980;2023-04-01T01:03:42;7.80;99.90
14144;DHT22;7152;48.348;10.980;2023-04-01T01:06:50;7.80;99.90
14144;DHT22;7152;48.348;10.980;2023-04-01T01:09:10;7.70;99.90
14144;DHT22;7152;48.348;10.980;2023-04-01T01:11:47;7.80;99.90
14144;DHT22;7152;48.348;10.980;2023-04-01T01:16:51;7.90;99.90
14144;DHT22;7152;48.348;10.980;2023-04-01T01:19:52;7.90;99.90
14144;DHT22;7152;48.348;10.980;2023-04-01T01:27:20;7.90;99.90
14144;DHT22;7152;48.348;10.980;2023-04-01T01:30:25;7.90;99.90
14144;DHT22;7152;48.348;10.980;2023-04-01T01:33:10;7.90;99.90
14144;DHT22;7152;48.348;10.980;2023-04-01T01:35:43;7.90;99.90
14144;DHT22;7152;48.348;10.980;2023-04-01T01:38:13;7.80;99.90
14144;DHT22;7152;48.348;10.980;2023-04-01T01:40:42;7.80;99.90
14144;DHT22;7152;48.348;10.980;2023-04-01T01:43:11;7.80;99.90
14144;DHT22;7152;48.348;10.980;2023-04-01T01:45:46;7.80;99.90
14144;DHT22;7152;48.348;10.980;2023-04-01T01:48:14;7.80;99.90
14144;DHT22;7152;48.348;10.980;2023-04-01T01:50:41;7.80;99.90
14144;DHT22;7152;48.348;10.980;2023-04-01T01:53:10;7.80;99.90
14144;DHT22;7152;48.348;10.980;2023-04-01T01:55:41;7.80;99.90
14144;DHT22;7152;48.348;10.980;2023-04-01T01:58:14;7.70;99.90
14144;DHT22;7152;48.348;10.980;2023-04-01T02:00:44;7.70;99.90
14144;DHT22;7152;48.348;10.980;2023-04-01T02:03:12;7.60;99.90
14144;DHT22;7152;48.348;10.980;2023-04-01T02:05:39;7.60;99.90
14144;DHT22;7152;48.348;10.980;2023-04-01T02:08:12;7.60;99.90
14144;DHT22;7152;48.348;10.980;2023-04-01T02:10:42;7.50;99.90
14144;DHT22;7152;48.348;10.980;2023-04-01T02:16:06;7.40;99.90
14144;DHT22;7152;48.348;10.980;2023-04-01T02:18:35;7.40;99.90
14144;DHT22;7152;48.348;10.980;2023-04-01T02:21:03;7.30;99.90
14144;DHT22;7152;48.348;10.980;2023-04-01T02:23:32;7.30;99.90
14144;DHT22;7152;48.348;10.980;2023-04-01T02:25:59;7.30;99.90
14144;DHT22;7152;48.348;10.980;2023-04-01T02:28:26;7.30;99.90
14144;DHT22;7152;48.348;10.980;2023-04-01T02:30:53;7.30;99.90
14144;DHT22;7152;48.348;10.980;2023-04-01T02:33:19;7.30;99.90
14144;DHT22;7152;48.348;10.980;2023-04-01T02:35:46;7.20;99.90
14144;DHT22;7152;48.348;10.980;2023-04-01T02:38:12;7.20;99.90
14144;DHT22;7152;48.348;10.980;2023-04-01T02:40:46;7.20;99.90
14144;DHT22;7152;48.348;10.980;2023-04-01T02:43:12;7.10;99.90
14144;DHT22;7152;48.348;10.980;2023-04-01T02:45:38;7.10;99.90
14144;DHT22;7152;48.348;10.980;2023-04-01T02:48:04;7.10;99.90
14144;DHT22;7152;48.348;10.980;2023-04-01T02:50:30;7.10;99.90
14144;DHT22;7152;48.348;10.980;2023-04-01T02:52:56;7.00;99.90
14144;DHT22;7152;48.348;10.980;2023-04-01T02:55:21;7.00;99.90
14144;DHT22;7152;48.348;10.980;2023-04-01T02:57:47;7.00;99.90
14144;DHT22;7152;48.348;10.980;2023-04-01T03:00:13;7.00;99.90
14144;DHT22;7152;48.348;10.980;2023-04-01T03:02:39;6.90;99.90
14144;DHT22;7152;48.348;10.980;2023-04-01T03:05:06;6.90;99.90
14144;DHT22;7152;48.348;10.980;2023-04-01T03:07:32;6.90;99.90
14144;DHT22;7152;48.348;10.980;2023-04-01T03:09:58;6.90;99.90
14144;DHT22;7152;48.348;10.980;2023-04-01T03:12:23;6.90;99.90
14144;DHT22;7152;48.348;10.980;2023-04-01T03:14:49;6.90;99.90
14144;DHT22;7152;48.348;10.980;2023-04-01T03:17:15;6.90;99.90
14144;DHT22;7152;48.348;10.980;2023-04-01T03:19:41;6.80;99.90
14144;DHT22;7152;48.348;10.980;2023-04-01T03:22:07;6.80;99.90
14144;DHT22;7152;48.348;10.980;2023-04-01T03:24:33;6.80;99.90
14144;DHT22;7152;48.348;10.980;2023-04-01T03:26:58;6.90;99.90
14144;DHT22;7152;48.348;10.980;2023-04-01T03:29:24;6.90;99.90
14144;DHT22;7152;48.348;10.980;2023-04-01T03:31:50;7.00;99.90
14144;DHT22;7152;48.348;10.980;2023-04-01T03:34:15;7.00;99.90
14144;DHT22;7152;48.348;10.980;2023-04-01T03:36:41;7.00;99.90
14144;DHT22;7152;48.348;10.980;2023-04-01T03:39:06;7.10;99.90
14144;DHT22;7152;48.348;10.980;2023-04-01T03:41:32;7.10;99.90
14144;DHT22;7152;48.348;10.980;2023-04-01T03:44:00;7.10;99.90
14144;DHT22;7152;48.348;10.980;2023-04-01T03:46:26;7.10;99.90
14144;DHT22;7152;48.348;10.980;2023-04-01T03:48:51;7.10;99.90
14144;DHT22;7152;48.348;10.980;2023-04-01T03:51:17;7.10;99.90
14144;DHT22;7152;48.348;10.980;2023-04-01T03:53:42;7.00;99.90
14144;DHT22;7152;48.348;10.980;2023-04-01T03:56:09;7.10;99.90
14144;DHT22;7152;48.348;10.980;2023-04-01T03:58:35;7.00;99.90
14144;DHT22;7152;48.348;10.980;2023-04-01T04:01:01;7.00;99.90
14144;DHT22;7152;48.348;10.980;2023-04-01T04:03:27;7.10;99.90
14144;DHT22;7152;48.348;10.980;2023-04-01T04:05:53;7.10;99.90
14144;DHT22;7152;48.348;10.980;2023-04-01T04:08:19;7.10;99.90
14144;DHT22;7152;48.348;10.980;2023-04-01T04:10:46;7.10;99.90
14144;DHT22;7152;48.348;10.980;2023-04-01T04:13:13;7.10;99.90
14144;DHT22;7152;48.348;10.980;2023-04-01T04:15:38;7.10;99.90
14144;DHT22;7152;48.348;10.980;2023-04-01T04:18:04;7.20;99.90
14144;DHT22;7152;48.348;10.980;2023-04-01T04:20:30;7.20;99.90
14144;DHT22;7152;48.348;10.980;2023-04-01T04:22:55;7.20;99.90
14144;DHT22;7152;48.348;10.980;2023-04-01T04:25:21;7.20;99.90
14144;DHT22;7152;48.348;10.980;2023-04-01T04:27:47;7.20;99.90
14144;DHT22;7152;48.348;10.980;2023-04-01T04:30:12;7.20;99.90
14144;DHT22;7152;48.348;10.980;2023-04-01T04:32:38;7.20;99.90
14144;DHT22;7152;48.348;10.980;2023-04-01T04:35:04;7.10;99.90
14144;DHT22;7152;48.348;10.980;2023-04-01T04:37:31;7.00;99.90
14144;DHT22;7152;48.348;10.980;2023-04-01T04:39:57;7.00;99.90
14144;DHT22;7152;48.348;10.980;2023-04-01T04:42:23;6.90;99.90
14144;DHT22;7152;48.348;10.980;2023-04-01T04:44:48;6.90;99.90
14144;DHT22;7152;48.348;10.980;2023-04-01T04:47:14;6.90;99.90
14144;DHT22;7152;48.348;10.980;2023-04-01T04:49:39;6.90;99.90
14144;DHT22;7152;48.348;10.980;2023-04-01T04:52:05;7.00;99.90
14144;DHT22;7152;48.348;10.980;2023-04-01T04:54:31;7.00;99.90
14144;DHT22;7152;48.348;10.980;2023-04-01T04:56:57;7.10;99.90
14144;DHT22;7152;48.348;10.980;2023-04-01T04:59:22;7.10;99.90
14144;DHT22;7152;48.348;10.980;2023-04-01T05:01:48;7.10;99.90
14144;DHT22;7152;48.348;10.980;2023-04-01T05:04:13;7.20;99.90
14144;DHT22;7152;48.348;10.980;2023-04-01T05:06:39;7.20;99.90
14144;DHT22;7152;48.348;10.980;2023-04-01T05:09:05;7.30;99.90
14144;DHT22;7152;48.348;10.980;2023-04-01T05:11:30;7.30;99.90
14144;DHT22;7152;48.348;10.980;2023-04-01T05:13:56;7.30;99.90
14144;DHT22;7152;48.348;10.980;2023-04-01T05:16:22;7.30;99.90
14144;DHT22;7152;48.348;10.980;2023-04-01T05:18:47;7.40;99.90
14144;DHT22;7152;48.348;10.980;2023-04-01T05:21:14;7.40;99.90
14144;DHT22;7152;48.348;10.980;2023-04-01T05:23:40;7.40;99.90
14144;DHT22;7152;48.348;10.980;2023-04-01T05:26:09;7.40;99.90
14144;DHT22;7152;48.348;10.980;2023-04-01T05:28:35;7.50;99.90
14144;DHT22;7152;48.348;10.980;2023-04-01T05:31:01;7.50;99.90
14144;DHT22;7152;48.348;10.980;2023-04-01T05:33:28;7.50;99.90
14144;DHT22;7152;48.348;10.980;2023-04-01T05:35:54;7.50;99.90
14144;DHT22;7152;48.348;10.980;2023-04-01T05:38:20;7.50;99.90
14144;DHT22;7152;48.348;10.980;2023-04-01T05:40:45;7.50;99.90
14144;DHT22;7152;48.348;10.980;2023-04-01T05:43:11;7.50;99.90
14144;DHT22;7152;48.348;10.980;2023-04-01T05:45:37;7.50;99.90
14144;DHT22;7152;48.348;10.980;2023-04-01T05:48:03;7.50;99.90
14144;DHT22;7152;48.348;10.980;2023-04-01T05:50:29;7.50;99.90
14144;DHT22;7152;48.348;10.980;2023-04-01T05:52:54;7.50;99.90
14144;DHT22;7152;48.348;10.980;2023-04-01T05:55:20;7.50;99.90
14144;DHT22;7152;48.348;10.980;2023-04-01T05:57:46;7.50;99.90
14144;DHT22;7152;48.348;10.980;2023-04-01T06:00:14;7.60;99.90
14144;DHT22;7152;48.348;10.980;2023-04-01T06:02:40;7.50;99.90
14144;DHT22;7152;48.348;10.980;2023-04-01T06:05:28;7.60;99.90
14144;DHT22;7152;48.348;10.980;2023-04-01T06:07:59;7.60;99.90
14144;DHT22;7152;48.348;10.980;2023-04-01T06:19:33;7.90;99.90
14144;DHT22;7152;48.348;10.980;2023-04-01T06:25:10;8.00;99.90
14144;DHT22;7152;48.348;10.980;2023-04-01T06:27:55;8.10;99.90
14144;DHT22;7152;48.348;10.980;2023-04-01T06:30:45;8.10;99.90
14144;DHT22;7152;48.348;10.980;2023-04-01T06:36:18;8.10;99.90
14144;DHT22;7152;48.348;10.980;2023-04-01T06:50:34;8.70;99.90
14144;DHT22;7152;48.348;10.980;2023-04-01T06:53:21;8.60;99.90
14144;DHT22;7152;48.348;10.980;2023-04-01T06:56:02;8.60;99.90
14144;DHT22;7152;48.348;10.980;2023-04-01T06:58:35;8.60;99.90
14144;DHT22;7152;48.348;10.980;2023-04-01T07:01:04;8.60;99.90
14144;DHT22;7152;48.348;10.980;2023-04-01T07:03:44;8.70;99.90
14144;DHT22;7152;48.348;10.980;2023-04-01T07:06:30;8.70;99.90
14144;DHT22;7152;48.348;10.980;2023-04-01T07:08:59;8.70;99.90
14144;DHT22;7152;48.348;10.980;2023-04-01T07:11:31;8.80;99.90
14144;DHT22;7152;48.348;10.980;2023-04-01T07:14:21;9.00;99.90
14144;DHT22;7152;48.348;10.980;2023-04-01T07:17:08;9.10;99.90
14144;DHT22;7152;48.348;10.980;2023-04-01T07:22:49;9.30;99.90
14144;DHT22;7152;48.348;10.980;2023-04-01T07:25:25;9.40;99.90
14144;DHT22;7152;48.348;10.980;2023-04-01T07:28:03;9.50;99.90
14144;DHT22;7152;48.348;10.980;2023-04-01T07:30:33;9.50;99.90
14144;DHT22;7152;48.348;10.980;2023-04-01T07:35:59;9.60;99.90
14144;DHT22;7152;48.348;10.980;2023-04-01T07:38:41;9.60;99.90
14144;DHT22;7152;48.348;10.980;2023-04-01T07:49:14;9.70;99.90
14144;DHT22;7152;48.348;10.980;2023-04-01T08:03:09;10.00;99.90
14144;DHT22;7152;48.348;10.980;2023-04-01T08:05:41;10.10;99.90
14144;DHT22;7152;48.348;10.980;2023-04-01T08:10:56;10.20;99.90
14144;DHT22;7152;48.348;10.980;2023-04-01T08:16:23;10.20;99.90
14144;DHT22;7152;48.348;10.980;2023-04-01T08:21:21;10.20;99.90
14144;DHT22;7152;48.348;10.980;2023-04-01T08:23:51;10.20;99.90
14144;DHT22;7152;48.348;10.980;2023-04-01T08:26:43;10.30;99.90
14144;DHT22;7152;48.348;10.980;2023-04-01T08:29:27;10.50;99.90
14144;DHT22;7152;48.348;10.980;2023-04-01T08:34:36;10.60;99.90
14144;DHT22;7152;48.348;10.980;2023-04-01T08:37:07;10.70;99.90
14144;DHT22;7152;48.348;10.980;2023-04-01T08:39:46;10.80;99.90
14144;DHT22;7152;48.348;10.980;2023-04-01T08:45:44;11.10;99.90
14144;DHT22;7152;48.348;10.980;2023-04-01T08:48:19;11.10;99.90
14144;DHT22;7152;48.348;10.980;2023-04-01T08:57:20;11.30;99.90
14144;DHT22;7152;48.348;10.980;2023-04-01T09:07:21;11.60;99.90
14144;DHT22;7152;48.348;10.980;2023-04-01T09:10:07;11.60;99.90
14144;DHT22;7152;48.348;10.980;2023-04-01T09:29:30;11.60;99.90
14144;DHT22;7152;48.348;10.980;2023-04-01T09:37:35;11.70;99.90
14144;DHT22;7152;48.348;10.980;2023-04-01T09:40:21;11.80;99.90
14144;DHT22;7152;48.348;10.980;2023-04-01T09:43:16;11.80;99.90
14144;DHT22;7152;48.348;10.980;2023-04-01T09:59:32;12.00;99.90
14144;DHT22;7152;48.348;10.980;2023-04-01T10:02:26;11.80;99.90
14144;DHT22;7152;48.348;10.980;2023-04-01T10:16:46;11.90;99.90
14144;DHT22;7152;48.348;10.980;2023-04-01T10:22:10;11.80;99.90
14144;DHT22;7152;48.348;10.980;2023-04-01T10:30:04;11.60;99.90
14144;DHT22;7152;48.348;10.980;2023-04-01T10:40:38;11.00;99.90
14144;DHT22;7152;48.348;10.980;2023-04-01T10:56:39;9.70;99.90
14144;DHT22;7152;48.348;10.980;2023-04-01T11:30:03;8.40;99.90
14144;DHT22;7152;48.348;10.980;2023-04-01T11:32:39;8.40;99.90
14144;DHT22;7152;48.348;10.980;2023-04-01T11:35:38;8.40;99.90
14144;DHT22;7152;48.348;10.980;2023-04-01T11:41:26;8.30;99.90
14144;DHT22;7152;48.348;10.980;2023-04-01T12:06:02;8.40;99.90
14144;DHT22;7152;48.348;10.980;2023-04-01T12:08:57;8.50;99.90
14144;DHT22;7152;48.348;10.980;2023-04-01T12:19:58;8.50;99.90
14144;DHT22;7152;48.348;10.980;2023-04-01T12:25:38;8.60;99.90
14144;DHT22;7152;48.348;10.980;2023-04-01T12:28:32;8.70;99.90
14144;DHT22;7152;48.348;10.980;2023-04-01T12:41:31;9.00;99.90
14144;DHT22;7152;48.348;10.980;2023-04-01T12:46:53;9.00;99.90
14144;DHT22;7152;48.348;10.980;2023-04-01T12:49:33;9.00;99.90
14144;DHT22;7152;48.348;10.980;2023-04-01T13:15:05;9.70;99.90
14144;DHT22;7152;48.348;10.980;2023-04-01T13:18:37;9.80;99.90
14144;DHT22;7152;48.348;10.980;2023-04-01T13:20:53;9.90;99.90
14144;DHT22;7152;48.348;10.980;2023-04-01T13:23:44;10.10;99.90
14144;DHT22;7152;48.348;10.980;2023-04-01T13:29:20;10.10;99.90
14144;DHT22;7152;48.348;10.980;2023-04-01T13:34:32;10.00;99.90
14144;DHT22;7152;48.348;10.980;2023-04-01T13:42:57;10.30;99.90
14144;DHT22;7152;48.348;10.980;2023-04-01T13:45:34;10.30;99.90
14144;DHT22;7152;48.348;10.980;2023-04-01T14:11:16;10.70;99.90
14144;DHT22;7152;48.348;10.980;2023-04-01T14:25:00;10.90;99.90
14144;DHT22;7152;48.348;10.980;2023-04-01T14:27:41;11.10;99.90
14144;DHT22;7152;48.348;10.980;2023-04-01T14:30:25;11.20;99.90
14144;DHT22;7152;48.348;10.980;2023-04-01T14:53:12;10.70;99.90
14144;DHT22;7152;48.348;10.980;2023-04-01T14:58:15;11.00;99.90
14144;DHT22;7152;48.348;10.980;2023-04-01T15:09:05;12.50;99.90
14144;DHT22;7152;48.348;10.980;2023-04-01T15:12:05;13.20;99.90
14144;DHT22;7152;48.348;10.980;2023-04-01T15:14:43;13.90;99.90
14144;DHT22;7152;48.348;10.980;2023-04-01T15:25:30;14.00;99.90
14144;DHT22;7152;48.348;10.980;2023-04-01T15:28:06;13.40;99.90
14144;DHT22;7152;48.348;10.980;2023-04-01T15:30:55;12.90;99.90
14144;DHT22;7152;48.348;10.980;2023-04-01T15:38:58;12.20;99.90
14144;DHT22;7152;48.348;10.980;2023-04-01T15:46:58;11.50;99.90
14144;DHT22;7152;48.348;10.980;2023-04-01T15:49:43;11.40;99.90
14144;DHT22;7152;48.348;10.980;2023-04-01T15:52:22;11.40;99.90
14144;DHT22;7152;48.348;10.980;2023-04-01T15:55:31;11.40;99.90
14144;DHT22;7152;48.348;10.980;2023-04-01T16:01:29;11.70;99.90
14144;DHT22;7152;48.348;10.980;2023-04-01T16:04:13;11.90;99.90
14144;DHT22;7152;48.348;10.980;2023-04-01T16:10:37;11.90;99.90
14144;DHT22;7152;48.348;10.980;2023-04-01T16:12:48;11.90;99.90
14144;DHT22;7152;48.348;10.980;2023-04-01T16:15:26;11.70;99.90
14144;DHT22;7152;48.348;10.980;2023-04-01T16:28:57;10.80;99.90
14144;DHT22;7152;48.348;10.980;2023-04-01T16:31:47;10.60;99.90
14144;DHT22;7152;48.348;10.980;2023-04-01T16:34:36;10.50;99.90
14144;DHT22;7152;48.348;10.980;2023-04-01T16:37:31;10.40;99.90
14144;DHT22;7152;48.348;10.980;2023-04-01T16:40:09;10.30;99.90
14144;DHT22;7152;48.348;10.980;2023-04-01T16:43:04;10.30;99.90
14144;DHT22;7152;48.348;10.980;2023-04-01T16:48:18;10.20;99.90
14144;DHT22;7152;48.348;10.980;2023-04-01T16:51:21;10.20;99.90
14144;DHT22;7152;48.348;10.980;2023-04-01T16:55:02;10.10;99.90
14144;DHT22;7152;48.348;10.980;2023-04-01T16:57:16;10.10;99.90
14144;DHT22;7152;48.348;10.980;2023-04-01T17:00:00;10.00;99.90
14144;DHT22;7152;48.348;10.980;2023-04-01T17:02:45;9.90;99.90
14144;DHT22;7152;48.348;10.980;2023-04-01T17:05:13;9.80;99.90
14144;DHT22;7152;48.348;10.980;2023-04-01T17:13:39;9.60;99.90
14144;DHT22;7152;48.348;10.980;2023-04-01T17:16:36;9.60;99.90
14144;DHT22;7152;48.348;10.980;2023-04-01T17:19:14;9.60;99.90
14144;DHT22;7152;48.348;10.980;2023-04-01T17:38:39;9.30;99.90
14144;DHT22;7152;48.348;10.980;2023-04-01T17:42:00;9.20;99.90
14144;DHT22;7152;48.348;10.980;2023-04-01T17:52:55;9.20;99.90
14144;DHT22;7152;48.348;10.980;2023-04-01T17:58:22;9.20;99.90
14144;DHT22;7152;48.348;10.980;2023-04-01T18:01:15;9.20;99.90
14144;DHT22;7152;48.348;10.980;2023-04-01T18:17:30;9.10;99.90
14144;DHT22;7152;48.348;10.980;2023-04-01T18:22:44;9.00;99.90
14144;DHT22;7152;48.348;10.980;2023-04-01T18:25:32;9.00;99.90
14144;DHT22;7152;48.348;10.980;2023-04-01T18:31:05;8.90;99.90
14144;DHT22;7152;48.348;10.980;2023-04-01T18:39:00;8.90;99.90
14144;DHT22;7152;48.348;10.980;2023-04-01T18:41:44;8.90;99.90
14144;DHT22;7152;48.348;10.980;2023-04-01T18:47:54;8.90;99.90
14144;DHT22;7152;48.348;10.980;2023-04-01T18:51:10;8.90;99.90
14144;DHT22;7152;48.348;10.980;2023-04-01T18:56:07;8.90;99.90
14144;DHT22;7152;48.348;10.980;2023-04-01T18:58:36;8.90;99.90
14144;DHT22;7152;48.348;10.980;2023-04-01T19:14:52;8.90;99.90
14144;DHT22;7152;48.348;10.980;2023-04-01T19:25:37;8.90;99.90
14144;DHT22;7152;48.348;10.980;2023-04-01T19:33:26;8.90;99.90
14144;DHT22;7152;48.348;10.980;2023-04-01T19:35:59;8.90;99.90
14144;DHT22;7152;48.348;10.980;2023-04-01T19:38:37;8.90;99.90
14144;DHT22;7152;48.348;10.980;2023-04-01T19:46:40;8.80;99.90
14144;DHT22;7152;48.348;10.980;2023-04-01T19:52:10;8.70;99.90
14144;DHT22;7152;48.348;10.980;2023-04-01T19:54:56;8.70;99.90
14144;DHT22;7152;48.348;10.980;2023-04-01T20:05:45;8.70;99.90
14144;DHT22;7152;48.348;10.980;2023-04-01T20:08:18;8.60;99.90
14144;DHT22;7152;48.348;10.980;2023-04-01T20:11:01;8.60;99.90
14144;DHT22;7152;48.348;10.980;2023-04-01T20:13:38;8.60;99.90
14144;DHT22;7152;48.348;10.980;2023-04-01T20:16:11;8.60;99.90
14144;DHT22;7152;48.348;10.980;2023-04-01T20:21:24;8.50;99.90
14144;DHT22;7152;48.348;10.980;2023-04-01T20:26:30;8.50;99.90
14144;DHT22;7152;48.348;10.980;2023-04-01T20:31:43;8.50;99.90
14144;DHT22;7152;48.348;10.980;2023-04-01T20:40:30;8.40;99.90
14144;DHT22;7152;48.348;10.980;2023-04-01T20:45:58;8.30;99.90
14144;DHT22;7152;48.348;10.980;2023-04-01T20:51:26;8.30;99.90
14144;DHT22;7152;48.348;10.980;2023-04-01T20:59:41;8.30;99.90
14144;DHT22;7152;48.348;10.980;2023-04-01T21:07:58;8.30;99.90
14144;DHT22;7152;48.348;10.980;2023-04-01T21:13:30;8.20;99.90
14144;DHT22;7152;48.348;10.980;2023-04-01T21:27:20;8.30;99.90
14144;DHT22;7152;48.348;10.980;2023-04-01T21:30:18;8.30;99.90
14144;DHT22;7152;48.348;10.980;2023-04-01T21:47:32;8.30;99.90
14144;DHT22;7152;48.348;10.980;2023-04-01T21:53:16;8.20;99.90
14144;DHT22;7152;48.348;10.980;2023-04-01T21:59:12;8.10;99.90
14144;DHT22;7152;48.348;10.980;2023-04-01T22:02:08;8.00;99.90
14144;DHT22;7152;48.348;10.980;2023-04-01T22:07:17;8.00;99.90
14144;DHT22;7152;48.348;10.980;2023-04-01T22:10:21;7.90;99.90
14144;DHT22;7152;48.348;10.980;2023-04-01T22:21:06;7.70;99.90
14144;DHT22;7152;48.348;10.980;2023-04-01T22:28:49;7.70;99.90
14144;DHT22;7152;48.348;10.980;2023-04-01T22:31:21;7.70;99.90
14144;DHT22;7152;48.348;10.980;2023-04-01T22:33:58;7.70;99.90
14144;DHT22;7152;48.348;10.980;2023-04-01T22:42:24;7.60;99.90
14144;DHT22;7152;48.348;10.980;2023-04-01T22:55:40;7.40;99.90
14144;DHT22;7152;48.348;10.980;2023-04-01T22:58:14;7.40;99.90
14144;DHT22;7152;48.348;10.980;2023-04-01T23:00:49;7.40;99.90
14144;DHT22;7152;48.348;10.980;2023-04-01T23:03:30;7.40;99.90
14144;DHT22;7152;48.348;10.980;2023-04-01T23:05:59;7.40;99.90
14144;DHT22;7152;48.348;10.980;2023-04-01T23:10:57;7.30;99.90
14144;DHT22;7152;48.348;10.980;2023-04-01T23:13:31;7.30;99.90
14144;DHT22;7152;48.348;10.980;2023-04-01T23:15:58;7.30;99.90
14144;DHT22;7152;48.348;10.980;2023-04-01T23:24:12;7.40;99.90
14144;DHT22;7152;48.348;10.980;2023-04-01T23:26:53;7.40;99.90
14144;DHT22;7152;48.348;10.980;2023-04-01T23:29:21;7.50;99.90
14144;DHT22;7152;48.348;10.980;2023-04-01T23:31:56;7.50;99.90
14144;DHT22;7152;48.348;10.980;2023-04-01T23:34:33;7.50;99.90
14144;DHT22;7152;48.348;10.980;2023-04-01T23:37:07;7.50;99.90
14144;DHT22;7152;48.348;10.980;2023-04-01T23:39:38;7.60;99.90
14144;DHT22;7152;48.348;10.980;2023-04-01T23:42:14;7.60;99.90
14144;DHT22;7152;48.348;10.980;2023-04-01T23:44:41;7.60;99.90
14144;DHT22;7152;48.348;10.980;2023-04-01T23:47:14;7.60;99.90
14144;DHT22;7152;48.348;10.980;2023-04-01T23:50:14;7.60;99.90
14144;DHT22;7152;48.348;10.980;2023-04-01T23:53:03;7.60;99.90
14144;DHT22;7152;48.348;10.980;2023-04-01T23:55:32;7.60;99.90
